sensor_id;sensor_type;location;lat;lon;timestamp;P1;durP1;ratioP1;P2;durP2;ratioP2
677;SDS011;321;48.814;9.132;2023-08-06T00:00:05;2.23;;;1.80;;
677;SDS011;321;48.814;9.132;2023-08-06T00:02:31;2.30;;;1.77;;
677;SDS011;321;48.814;9.132;2023-08-06T00:04:57;1.40;;;1.30;;
677;SDS011;321;48.814;9.132;2023-08-06T00:07:23;1.40;;;1.20;;
677;SDS011;321;48.814;9.132;2023-08-06T00:09:48;1.37;;;1.27;;
677;SDS011;321;48.814;9.132;2023-08-06T00:12:17;3.10;;;1.53;;
677;SDS011;321;48.814;9.132;2023-08-06T00:14:43;4.13;;;1.40;;
677;SDS011;321;48.814;9.132;2023-08-06T00:17:09;2.33;;;1.33;;
677;SDS011;321;48.814;9.132;2023-08-06T00:19:35;1.00;;;0.80;;
677;SDS011;321;48.814;9.132;2023-08-06T00:22:01;2.23;;;1.40;;
677;SDS011;321;48.814;9.132;2023-08-06T00:24:27;0.83;;;0.60;;
677;SDS011;321;48.814;9.132;2023-08-06T00:26:53;1.57;;;0.90;;
677;SDS011;321;48.814;9.132;2023-08-06T00:29:19;1.40;;;1.30;;
677;SDS011;321;48.814;9.132;2023-08-06T00:31:44;1.43;;;1.33;;
677;SDS011;321;48.814;9.132;2023-08-06T00:34:10;1.27;;;1.17;;
677;SDS011;321;48.814;9.132;2023-08-06T00:36:35;1.63;;;1.20;;
677;SDS011;321;48.814;9.132;2023-08-06T00:39:01;2.40;;;1.77;;
677;SDS011;321;48.814;9.132;2023-08-06T00:41:27;1.83;;;1.10;;
677;SDS011;321;48.814;9.132;2023-08-06T00:43:52;1.37;;;0.93;;
677;SDS011;321;48.814;9.132;2023-08-06T00:46:18;12.43;;;1.77;;
677;SDS011;321;48.814;9.132;2023-08-06T00:48:44;1.13;;;1.03;;
677;SDS011;321;48.814;9.132;2023-08-06T00:51:10;3.07;;;0.80;;
677;SDS011;321;48.814;9.132;2023-08-06T00:53:37;2.13;;;0.97;;
677;SDS011;321;48.814;9.132;2023-08-06T00:56:03;1.33;;;0.70;;
677;SDS011;321;48.814;9.132;2023-08-06T00:58:29;1.37;;;1.20;;
677;SDS011;321;48.814;9.132;2023-08-06T01:00:55;1.17;;;1.07;;
677;SDS011;321;48.814;9.132;2023-08-06T01:03:20;1.20;;;1.10;;
677;SDS011;321;48.814;9.132;2023-08-06T01:05:46;1.50;;;1.07;;
677;SDS011;321;48.814;9.132;2023-08-06T01:08:58;1.00;;;0.63;;
677;SDS011;321;48.814;9.132;2023-08-06T01:13:54;1.30;;;1.00;;
677;SDS011;321;48.814;9.132;2023-08-06T01:16:37;1.87;;;0.93;;
677;SDS011;321;48.814;9.132;2023-08-06T01:19:04;0.93;;;0.77;;
677;SDS011;321;48.814;9.132;2023-08-06T01:21:40;1.70;;;1.60;;
677;SDS011;321;48.814;9.132;2023-08-06T01:24:06;1.00;;;0.80;;
677;SDS011;321;48.814;9.132;2023-08-06T01:26:52;1.50;;;1.40;;
677;SDS011;321;48.814;9.132;2023-08-06T01:31:59;1.20;;;0.70;;
677;SDS011;321;48.814;9.132;2023-08-06T01:34:25;1.60;;;1.47;;
677;SDS011;321;48.814;9.132;2023-08-06T01:36:53;1.10;;;1.00;;
677;SDS011;321;48.814;9.132;2023-08-06T01:39:19;1.57;;;1.10;;
677;SDS011;321;48.814;9.132;2023-08-06T01:41:46;0.90;;;0.77;;
677;SDS011;321;48.814;9.132;2023-08-06T01:44:12;1.27;;;1.17;;
677;SDS011;321;48.814;9.132;2023-08-06T01:46:38;1.93;;;1.10;;
677;SDS011;321;48.814;9.132;2023-08-06T01:49:04;1.40;;;0.93;;
677;SDS011;321;48.814;9.132;2023-08-06T01:51:29;1.00;;;0.80;;
677;SDS011;321;48.814;9.132;2023-08-06T01:53:55;1.20;;;0.90;;
677;SDS011;321;48.814;9.132;2023-08-06T01:56:20;1.37;;;0.97;;
677;SDS011;321;48.814;9.132;2023-08-06T01:58:46;3.20;;;0.83;;
677;SDS011;321;48.814;9.132;2023-08-06T02:01:12;0.90;;;0.80;;
677;SDS011;321;48.814;9.132;2023-08-06T02:03:37;1.03;;;0.93;;
677;SDS011;321;48.814;9.132;2023-08-06T02:06:02;0.97;;;0.83;;
677;SDS011;321;48.814;9.132;2023-08-06T02:08:28;1.20;;;0.73;;
677;SDS011;321;48.814;9.132;2023-08-06T02:10:54;2.53;;;1.30;;
677;SDS011;321;48.814;9.132;2023-08-06T02:13:19;1.53;;;0.90;;
677;SDS011;321;48.814;9.132;2023-08-06T02:15:45;2.23;;;1.03;;
677;SDS011;321;48.814;9.132;2023-08-06T02:18:13;1.47;;;1.07;;
677;SDS011;321;48.814;9.132;2023-08-06T02:20:39;0.90;;;0.70;;
677;SDS011;321;48.814;9.132;2023-08-06T02:23:05;1.63;;;1.07;;
677;SDS011;321;48.814;9.132;2023-08-06T02:25:31;1.13;;;0.90;;
677;SDS011;321;48.814;9.132;2023-08-06T02:27:56;0.97;;;0.70;;
677;SDS011;321;48.814;9.132;2023-08-06T02:30:22;1.00;;;0.83;;
677;SDS011;321;48.814;9.132;2023-08-06T02:32:47;1.10;;;0.90;;
677;SDS011;321;48.814;9.132;2023-08-06T02:35:13;1.00;;;0.70;;
677;SDS011;321;48.814;9.132;2023-08-06T02:37:38;0.93;;;0.80;;
677;SDS011;321;48.814;9.132;2023-08-06T02:40:04;1.57;;;1.27;;
677;SDS011;321;48.814;9.132;2023-08-06T02:42:30;2.00;;;1.13;;
677;SDS011;321;48.814;9.132;2023-08-06T02:44:55;1.07;;;0.83;;
677;SDS011;321;48.814;9.132;2023-08-06T02:47:21;1.17;;;1.00;;
677;SDS011;321;48.814;9.132;2023-08-06T02:49:47;1.73;;;1.07;;
677;SDS011;321;48.814;9.132;2023-08-06T02:52:12;0.93;;;0.83;;
677;SDS011;321;48.814;9.132;2023-08-06T02:54:38;1.83;;;1.13;;
677;SDS011;321;48.814;9.132;2023-08-06T02:57:04;1.20;;;1.10;;
677;SDS011;321;48.814;9.132;2023-08-06T02:59:30;2.77;;;1.03;;
677;SDS011;321;48.814;9.132;2023-08-06T03:01:56;1.00;;;0.63;;
677;SDS011;321;48.814;9.132;2023-08-06T03:04:21;1.30;;;1.07;;
677;SDS011;321;48.814;9.132;2023-08-06T03:06:48;1.00;;;0.90;;
677;SDS011;321;48.814;9.132;2023-08-06T03:09:15;1.33;;;0.73;;
677;SDS011;321;48.814;9.132;2023-08-06T03:11:41;3.73;;;1.43;;
677;SDS011;321;48.814;9.132;2023-08-06T03:14:06;1.30;;;1.17;;
677;SDS011;321;48.814;9.132;2023-08-06T03:16:32;1.40;;;1.30;;
677;SDS011;321;48.814;9.132;2023-08-06T03:18:57;0.90;;;0.77;;
677;SDS011;321;48.814;9.132;2023-08-06T03:21:23;1.63;;;1.20;;
677;SDS011;321;48.814;9.132;2023-08-06T03:23:48;1.30;;;1.20;;
677;SDS011;321;48.814;9.132;2023-08-06T03:26:14;0.90;;;0.60;;
677;SDS011;321;48.814;9.132;2023-08-06T03:28:39;0.87;;;0.70;;
677;SDS011;321;48.814;9.132;2023-08-06T03:31:05;1.73;;;1.30;;
677;SDS011;321;48.814;9.132;2023-08-06T03:33:30;2.10;;;1.00;;
677;SDS011;321;48.814;9.132;2023-08-06T03:35:56;1.37;;;0.80;;
677;SDS011;321;48.814;9.132;2023-08-06T03:38:22;5.43;;;1.03;;
677;SDS011;321;48.814;9.132;2023-08-06T03:40:47;0.97;;;0.73;;
677;SDS011;321;48.814;9.132;2023-08-06T03:43:13;3.10;;;1.10;;
677;SDS011;321;48.814;9.132;2023-08-06T03:45:40;1.37;;;1.00;;
677;SDS011;321;48.814;9.132;2023-08-06T03:48:05;1.60;;;0.80;;
677;SDS011;321;48.814;9.132;2023-08-06T03:50:31;3.00;;;1.13;;
677;SDS011;321;48.814;9.132;2023-08-06T03:52:56;1.10;;;0.73;;
677;SDS011;321;48.814;9.132;2023-08-06T03:55:22;1.13;;;0.83;;
677;SDS011;321;48.814;9.132;2023-08-06T03:57:48;1.27;;;1.10;;
677;SDS011;321;48.814;9.132;2023-08-06T04:00:14;1.00;;;0.80;;
677;SDS011;321;48.814;9.132;2023-08-06T04:02:40;1.30;;;1.03;;
677;SDS011;321;48.814;9.132;2023-08-06T04:05:06;15.10;;;1.17;;
677;SDS011;321;48.814;9.132;2023-08-06T04:07:31;1.87;;;1.23;;
677;SDS011;321;48.814;9.132;2023-08-06T04:09:58;1.13;;;0.83;;
677;SDS011;321;48.814;9.132;2023-08-06T04:12:25;0.93;;;0.67;;
677;SDS011;321;48.814;9.132;2023-08-06T04:14:51;1.00;;;0.63;;
677;SDS011;321;48.814;9.132;2023-08-06T04:17:18;1.20;;;1.03;;
677;SDS011;321;48.814;9.132;2023-08-06T04:19:47;0.90;;;0.63;;
677;SDS011;321;48.814;9.132;2023-08-06T04:22:14;2.23;;;0.70;;
677;SDS011;321;48.814;9.132;2023-08-06T04:24:41;0.90;;;0.60;;
677;SDS011;321;48.814;9.132;2023-08-06T04:27:07;1.37;;;0.80;;
677;SDS011;321;48.814;9.132;2023-08-06T04:29:33;1.07;;;0.57;;
677;SDS011;321;48.814;9.132;2023-08-06T04:31:58;1.20;;;1.00;;
677;SDS011;321;48.814;9.132;2023-08-06T04:34:24;0.90;;;0.60;;
677;SDS011;321;48.814;9.132;2023-08-06T04:36:49;0.90;;;0.60;;
677;SDS011;321;48.814;9.132;2023-08-06T04:39:15;0.97;;;0.70;;
677;SDS011;321;48.814;9.132;2023-08-06T04:41:40;1.40;;;1.03;;
677;SDS011;321;48.814;9.132;2023-08-06T04:44:06;1.20;;;0.70;;
677;SDS011;321;48.814;9.132;2023-08-06T04:46:31;1.00;;;0.80;;
677;SDS011;321;48.814;9.132;2023-08-06T04:48:57;0.80;;;0.60;;
677;SDS011;321;48.814;9.132;2023-08-06T04:51:22;1.00;;;0.80;;
677;SDS011;321;48.814;9.132;2023-08-06T04:53:48;1.10;;;0.73;;
677;SDS011;321;48.814;9.132;2023-08-06T04:56:14;1.30;;;1.07;;
677;SDS011;321;48.814;9.132;2023-08-06T04:58:39;1.60;;;0.70;;
677;SDS011;321;48.814;9.132;2023-08-06T05:01:05;0.80;;;0.50;;
677;SDS011;321;48.814;9.132;2023-08-06T05:03:30;1.00;;;0.90;;
677;SDS011;321;48.814;9.132;2023-08-06T05:05:56;1.60;;;1.10;;
677;SDS011;321;48.814;9.132;2023-08-06T05:08:21;0.80;;;0.60;;
677;SDS011;321;48.814;9.132;2023-08-06T05:10:47;1.13;;;1.03;;
677;SDS011;321;48.814;9.132;2023-08-06T05:13:12;0.80;;;0.40;;
677;SDS011;321;48.814;9.132;2023-08-06T05:15:38;1.00;;;0.83;;
677;SDS011;321;48.814;9.132;2023-08-06T05:18:07;0.90;;;0.60;;
677;SDS011;321;48.814;9.132;2023-08-06T05:20:35;0.90;;;0.80;;
677;SDS011;321;48.814;9.132;2023-08-06T05:23:02;1.20;;;0.93;;
677;SDS011;321;48.814;9.132;2023-08-06T05:25:28;1.40;;;1.17;;
677;SDS011;321;48.814;9.132;2023-08-06T05:27:53;1.00;;;0.63;;
677;SDS011;321;48.814;9.132;2023-08-06T05:30:19;1.77;;;1.03;;
677;SDS011;321;48.814;9.132;2023-08-06T05:32:44;0.90;;;0.47;;
677;SDS011;321;48.814;9.132;2023-08-06T05:35:10;1.30;;;1.10;;
677;SDS011;321;48.814;9.132;2023-08-06T05:37:35;1.00;;;0.73;;
677;SDS011;321;48.814;9.132;2023-08-06T05:40:01;0.83;;;0.53;;
677;SDS011;321;48.814;9.132;2023-08-06T05:42:28;1.60;;;1.20;;
677;SDS011;321;48.814;9.132;2023-08-06T05:44:53;1.17;;;0.80;;
677;SDS011;321;48.814;9.132;2023-08-06T05:47:19;1.10;;;0.50;;
677;SDS011;321;48.814;9.132;2023-08-06T05:49:45;0.80;;;0.50;;
677;SDS011;321;48.814;9.132;2023-08-06T05:52:10;0.70;;;0.30;;
677;SDS011;321;48.814;9.132;2023-08-06T05:54:36;0.90;;;0.60;;
677;SDS011;321;48.814;9.132;2023-08-06T05:57:02;1.00;;;0.53;;
677;SDS011;321;48.814;9.132;2023-08-06T05:59:27;1.10;;;0.70;;
677;SDS011;321;48.814;9.132;2023-08-06T06:01:53;0.80;;;0.53;;
677;SDS011;321;48.814;9.132;2023-08-06T06:04:18;0.80;;;0.40;;
677;SDS011;321;48.814;9.132;2023-08-06T06:06:44;0.90;;;0.40;;
677;SDS011;321;48.814;9.132;2023-08-06T06:09:10;0.80;;;0.50;;
677;SDS011;321;48.814;9.132;2023-08-06T06:11:35;0.80;;;0.50;;
677;SDS011;321;48.814;9.132;2023-08-06T06:14:01;0.80;;;0.30;;
677;SDS011;321;48.814;9.132;2023-08-06T06:16:27;3.63;;;0.80;;
677;SDS011;321;48.814;9.132;2023-08-06T06:18:52;0.80;;;0.50;;
677;SDS011;321;48.814;9.132;2023-08-06T06:21:19;0.80;;;0.50;;
677;SDS011;321;48.814;9.132;2023-08-06T06:23:45;1.03;;;0.50;;
677;SDS011;321;48.814;9.132;2023-08-06T06:26:10;2.50;;;1.13;;
677;SDS011;321;48.814;9.132;2023-08-06T06:28:36;1.13;;;0.57;;
677;SDS011;321;48.814;9.132;2023-08-06T06:31:02;0.80;;;0.40;;
677;SDS011;321;48.814;9.132;2023-08-06T06:33:28;1.23;;;0.60;;
677;SDS011;321;48.814;9.132;2023-08-06T06:35:53;0.80;;;0.40;;
677;SDS011;321;48.814;9.132;2023-08-06T06:38:19;0.70;;;0.40;;
677;SDS011;321;48.814;9.132;2023-08-06T06:40:53;0.77;;;0.40;;
677;SDS011;321;48.814;9.132;2023-08-06T06:43:19;1.20;;;0.80;;
677;SDS011;321;48.814;9.132;2023-08-06T06:45:44;0.80;;;0.40;;
677;SDS011;321;48.814;9.132;2023-08-06T06:48:10;0.70;;;0.40;;
677;SDS011;321;48.814;9.132;2023-08-06T06:50:35;0.80;;;0.50;;
677;SDS011;321;48.814;9.132;2023-08-06T06:53:01;0.90;;;0.57;;
677;SDS011;321;48.814;9.132;2023-08-06T06:55:26;1.00;;;0.50;;
677;SDS011;321;48.814;9.132;2023-08-06T06:57:52;0.90;;;0.50;;
677;SDS011;321;48.814;9.132;2023-08-06T07:00:18;0.70;;;0.40;;
677;SDS011;321;48.814;9.132;2023-08-06T07:02:43;1.33;;;0.50;;
677;SDS011;321;48.814;9.132;2023-08-06T07:05:09;0.70;;;0.37;;
677;SDS011;321;48.814;9.132;2023-08-06T07:07:35;0.80;;;0.40;;
677;SDS011;321;48.814;9.132;2023-08-06T07:10:01;0.80;;;0.40;;
677;SDS011;321;48.814;9.132;2023-08-06T07:12:27;0.70;;;0.30;;
677;SDS011;321;48.814;9.132;2023-08-06T07:14:53;0.80;;;0.50;;
677;SDS011;321;48.814;9.132;2023-08-06T07:17:18;0.80;;;0.40;;
677;SDS011;321;48.814;9.132;2023-08-06T07:19:44;0.70;;;0.30;;
677;SDS011;321;48.814;9.132;2023-08-06T07:22:09;0.97;;;0.57;;
677;SDS011;321;48.814;9.132;2023-08-06T07:24:35;0.77;;;0.37;;
677;SDS011;321;48.814;9.132;2023-08-06T07:27:01;1.00;;;0.57;;
677;SDS011;321;48.814;9.132;2023-08-06T07:29:26;0.80;;;0.40;;
677;SDS011;321;48.814;9.132;2023-08-06T07:31:52;0.70;;;0.30;;
677;SDS011;321;48.814;9.132;2023-08-06T07:34:18;0.90;;;0.40;;
677;SDS011;321;48.814;9.132;2023-08-06T07:36:44;0.80;;;0.40;;
677;SDS011;321;48.814;9.132;2023-08-06T07:39:10;0.70;;;0.30;;
677;SDS011;321;48.814;9.132;2023-08-06T07:41:36;0.80;;;0.50;;
677;SDS011;321;48.814;9.132;2023-08-06T07:44:02;0.70;;;0.30;;
677;SDS011;321;48.814;9.132;2023-08-06T07:46:27;0.70;;;0.30;;
677;SDS011;321;48.814;9.132;2023-08-06T07:48:55;0.70;;;0.30;;
677;SDS011;321;48.814;9.132;2023-08-06T07:51:21;0.80;;;0.40;;
677;SDS011;321;48.814;9.132;2023-08-06T07:53:46;0.70;;;0.40;;
677;SDS011;321;48.814;9.132;2023-08-06T07:56:12;0.70;;;0.30;;
677;SDS011;321;48.814;9.132;2023-08-06T07:58:37;0.90;;;0.40;;
677;SDS011;321;48.814;9.132;2023-08-06T08:01:03;0.70;;;0.30;;
677;SDS011;321;48.814;9.132;2023-08-06T08:03:28;0.70;;;0.30;;
677;SDS011;321;48.814;9.132;2023-08-06T08:05:54;0.80;;;0.57;;
677;SDS011;321;48.814;9.132;2023-08-06T08:08:24;0.80;;;0.50;;
677;SDS011;321;48.814;9.132;2023-08-06T08:10:49;0.77;;;0.30;;
677;SDS011;321;48.814;9.132;2023-08-06T08:13:15;1.73;;;0.77;;
677;SDS011;321;48.814;9.132;2023-08-06T08:15:40;0.80;;;0.30;;
677;SDS011;321;48.814;9.132;2023-08-06T08:18:06;0.80;;;0.30;;
677;SDS011;321;48.814;9.132;2023-08-06T08:20:32;0.80;;;0.30;;
677;SDS011;321;48.814;9.132;2023-08-06T08:23:00;0.80;;;0.30;;
677;SDS011;321;48.814;9.132;2023-08-06T08:25:26;0.77;;;0.30;;
677;SDS011;321;48.814;9.132;2023-08-06T08:27:52;0.80;;;0.30;;
677;SDS011;321;48.814;9.132;2023-08-06T08:30:18;0.80;;;0.30;;
677;SDS011;321;48.814;9.132;2023-08-06T08:32:43;0.80;;;0.40;;
677;SDS011;321;48.814;9.132;2023-08-06T08:35:09;0.70;;;0.30;;
677;SDS011;321;48.814;9.132;2023-08-06T08:37:37;0.80;;;0.40;;
677;SDS011;321;48.814;9.132;2023-08-06T08:40:03;0.70;;;0.30;;
677;SDS011;321;48.814;9.132;2023-08-06T08:42:30;0.80;;;0.30;;
677;SDS011;321;48.814;9.132;2023-08-06T08:44:56;0.80;;;0.40;;
677;SDS011;321;48.814;9.132;2023-08-06T08:47:22;0.70;;;0.30;;
677;SDS011;321;48.814;9.132;2023-08-06T08:49:48;0.70;;;0.30;;
677;SDS011;321;48.814;9.132;2023-08-06T08:52:15;0.80;;;0.40;;
677;SDS011;321;48.814;9.132;2023-08-06T08:54:41;1.63;;;0.50;;
677;SDS011;321;48.814;9.132;2023-08-06T08:57:08;0.90;;;0.43;;
677;SDS011;321;48.814;9.132;2023-08-06T08:59:34;0.90;;;0.40;;
677;SDS011;321;48.814;9.132;2023-08-06T09:02:00;0.80;;;0.30;;
677;SDS011;321;48.814;9.132;2023-08-06T09:04:27;1.30;;;0.60;;
677;SDS011;321;48.814;9.132;2023-08-06T09:06:56;0.90;;;0.40;;
677;SDS011;321;48.814;9.132;2023-08-06T09:09:28;0.80;;;0.40;;
677;SDS011;321;48.814;9.132;2023-08-06T09:11:59;1.13;;;0.90;;
677;SDS011;321;48.814;9.132;2023-08-06T09:14:26;0.70;;;0.30;;
677;SDS011;321;48.814;9.132;2023-08-06T09:16:53;0.80;;;0.40;;
677;SDS011;321;48.814;9.132;2023-08-06T09:19:22;0.77;;;0.30;;
677;SDS011;321;48.814;9.132;2023-08-06T09:21:50;0.70;;;0.30;;
677;SDS011;321;48.814;9.132;2023-08-06T09:24:16;0.70;;;0.30;;
677;SDS011;321;48.814;9.132;2023-08-06T09:26:43;0.70;;;0.30;;
677;SDS011;321;48.814;9.132;2023-08-06T09:29:10;0.70;;;0.30;;
677;SDS011;321;48.814;9.132;2023-08-06T09:34:14;0.70;;;0.30;;
677;SDS011;321;48.814;9.132;2023-08-06T09:36:48;0.70;;;0.30;;
677;SDS011;321;48.814;9.132;2023-08-06T09:39:18;0.70;;;0.30;;
677;SDS011;321;48.814;9.132;2023-08-06T09:41:46;0.70;;;0.30;;
677;SDS011;321;48.814;9.132;2023-08-06T09:44:15;0.80;;;0.30;;
677;SDS011;321;48.814;9.132;2023-08-06T09:46:57;0.80;;;0.30;;
677;SDS011;321;48.814;9.132;2023-08-06T09:49:27;0.80;;;0.30;;
677;SDS011;321;48.814;9.132;2023-08-06T09:52:04;0.80;;;0.30;;
677;SDS011;321;48.814;9.132;2023-08-06T09:54:30;0.70;;;0.30;;
677;SDS011;321;48.814;9.132;2023-08-06T09:57:00;0.70;;;0.30;;
677;SDS011;321;48.814;9.132;2023-08-06T09:59:26;0.80;;;0.40;;
677;SDS011;321;48.814;9.132;2023-08-06T10:01:53;0.70;;;0.30;;
677;SDS011;321;48.814;9.132;2023-08-06T10:04:22;0.70;;;0.30;;
677;SDS011;321;48.814;9.132;2023-08-06T10:06:49;0.70;;;0.30;;
677;SDS011;321;48.814;9.132;2023-08-06T10:09:15;0.70;;;0.30;;
677;SDS011;321;48.814;9.132;2023-08-06T10:11:44;0.70;;;0.30;;
677;SDS011;321;48.814;9.132;2023-08-06T10:14:16;0.70;;;0.30;;
677;SDS011;321;48.814;9.132;2023-08-06T10:16:51;0.80;;;0.40;;
677;SDS011;321;48.814;9.132;2023-08-06T10:19:18;0.70;;;0.30;;
677;SDS011;321;48.814;9.132;2023-08-06T10:24:47;0.70;;;0.30;;
677;SDS011;321;48.814;9.132;2023-08-06T10:27:18;0.70;;;0.30;;
677;SDS011;321;48.814;9.132;2023-08-06T10:29:45;0.70;;;0.30;;
677;SDS011;321;48.814;9.132;2023-08-06T10:32:11;1.97;;;0.60;;
677;SDS011;321;48.814;9.132;2023-08-06T10:34:52;0.80;;;0.30;;
677;SDS011;321;48.814;9.132;2023-08-06T10:37:35;0.80;;;0.37;;
677;SDS011;321;48.814;9.132;2023-08-06T10:40:01;0.80;;;0.30;;
677;SDS011;321;48.814;9.132;2023-08-06T10:42:28;0.70;;;0.30;;
677;SDS011;321;48.814;9.132;2023-08-06T10:47:40;1.00;;;0.40;;
677;SDS011;321;48.814;9.132;2023-08-06T10:50:07;0.80;;;0.30;;
677;SDS011;321;48.814;9.132;2023-08-06T10:52:34;0.70;;;0.30;;
677;SDS011;321;48.814;9.132;2023-08-06T10:55:00;1.00;;;0.50;;
677;SDS011;321;48.814;9.132;2023-08-06T10:57:25;1.33;;;0.67;;
677;SDS011;321;48.814;9.132;2023-08-06T10:59:51;0.70;;;0.30;;
677;SDS011;321;48.814;9.132;2023-08-06T11:02:17;0.80;;;0.30;;
677;SDS011;321;48.814;9.132;2023-08-06T11:04:43;0.80;;;0.40;;
677;SDS011;321;48.814;9.132;2023-08-06T11:07:09;0.80;;;0.40;;
677;SDS011;321;48.814;9.132;2023-08-06T11:09:36;0.80;;;0.40;;
677;SDS011;321;48.814;9.132;2023-08-06T11:12:02;1.00;;;0.40;;
677;SDS011;321;48.814;9.132;2023-08-06T11:14:30;0.80;;;0.30;;
677;SDS011;321;48.814;9.132;2023-08-06T11:16:55;1.67;;;0.83;;
677;SDS011;321;48.814;9.132;2023-08-06T11:19:22;0.80;;;0.40;;
677;SDS011;321;48.814;9.132;2023-08-06T11:21:49;0.80;;;0.37;;
677;SDS011;321;48.814;9.132;2023-08-06T11:24:15;0.77;;;0.30;;
677;SDS011;321;48.814;9.132;2023-08-06T11:26:42;0.80;;;0.60;;
677;SDS011;321;48.814;9.132;2023-08-06T11:29:09;0.80;;;0.40;;
677;SDS011;321;48.814;9.132;2023-08-06T11:31:35;0.80;;;0.40;;
677;SDS011;321;48.814;9.132;2023-08-06T11:34:01;0.80;;;0.40;;
677;SDS011;321;48.814;9.132;2023-08-06T11:36:28;0.80;;;0.50;;
677;SDS011;321;48.814;9.132;2023-08-06T11:38:59;1.00;;;0.53;;
677;SDS011;321;48.814;9.132;2023-08-06T11:41:30;0.80;;;0.40;;
677;SDS011;321;48.814;9.132;2023-08-06T11:43:57;1.00;;;0.57;;
677;SDS011;321;48.814;9.132;2023-08-06T11:46:23;0.90;;;0.43;;
677;SDS011;321;48.814;9.132;2023-08-06T11:51:25;1.03;;;0.50;;
677;SDS011;321;48.814;9.132;2023-08-06T11:53:51;1.67;;;0.80;;
677;SDS011;321;48.814;9.132;2023-08-06T11:56:17;0.80;;;0.40;;
677;SDS011;321;48.814;9.132;2023-08-06T11:58:43;0.90;;;0.57;;
677;SDS011;321;48.814;9.132;2023-08-06T12:01:09;0.80;;;0.40;;
677;SDS011;321;48.814;9.132;2023-08-06T12:03:39;1.30;;;0.87;;
677;SDS011;321;48.814;9.132;2023-08-06T12:06:04;0.80;;;0.40;;
677;SDS011;321;48.814;9.132;2023-08-06T12:08:30;0.90;;;0.60;;
677;SDS011;321;48.814;9.132;2023-08-06T12:10:56;1.00;;;0.67;;
677;SDS011;321;48.814;9.132;2023-08-06T12:13:22;0.83;;;0.63;;
677;SDS011;321;48.814;9.132;2023-08-06T12:15:48;3.53;;;0.60;;
677;SDS011;321;48.814;9.132;2023-08-06T12:18:14;0.80;;;0.40;;
677;SDS011;321;48.814;9.132;2023-08-06T12:20:42;1.20;;;0.70;;
677;SDS011;321;48.814;9.132;2023-08-06T12:23:08;1.57;;;0.50;;
677;SDS011;321;48.814;9.132;2023-08-06T12:25:34;0.90;;;0.60;;
677;SDS011;321;48.814;9.132;2023-08-06T12:28:00;1.63;;;1.53;;
677;SDS011;321;48.814;9.132;2023-08-06T12:30:26;0.90;;;0.50;;
677;SDS011;321;48.814;9.132;2023-08-06T12:32:52;1.30;;;1.00;;
677;SDS011;321;48.814;9.132;2023-08-06T12:35:18;1.40;;;1.10;;
677;SDS011;321;48.814;9.132;2023-08-06T12:37:45;1.83;;;0.60;;
677;SDS011;321;48.814;9.132;2023-08-06T12:40:11;0.80;;;0.40;;
677;SDS011;321;48.814;9.132;2023-08-06T12:42:37;0.80;;;0.50;;
677;SDS011;321;48.814;9.132;2023-08-06T12:45:02;1.00;;;0.80;;
677;SDS011;321;48.814;9.132;2023-08-06T12:47:28;1.20;;;0.70;;
677;SDS011;321;48.814;9.132;2023-08-06T12:49:56;1.23;;;0.60;;
677;SDS011;321;48.814;9.132;2023-08-06T12:52:22;1.53;;;1.17;;
677;SDS011;321;48.814;9.132;2023-08-06T12:54:48;1.63;;;0.87;;
677;SDS011;321;48.814;9.132;2023-08-06T12:57:14;0.97;;;0.70;;
677;SDS011;321;48.814;9.132;2023-08-06T12:59:40;1.30;;;0.67;;
677;SDS011;321;48.814;9.132;2023-08-06T13:02:06;0.80;;;0.40;;
677;SDS011;321;48.814;9.132;2023-08-06T13:04:31;1.90;;;0.60;;
677;SDS011;321;48.814;9.132;2023-08-06T13:06:59;1.00;;;0.50;;
677;SDS011;321;48.814;9.132;2023-08-06T13:09:24;0.97;;;0.47;;
677;SDS011;321;48.814;9.132;2023-08-06T13:11:51;0.90;;;0.63;;
677;SDS011;321;48.814;9.132;2023-08-06T13:14:18;0.80;;;0.47;;
677;SDS011;321;48.814;9.132;2023-08-06T13:16:44;0.70;;;0.30;;
677;SDS011;321;48.814;9.132;2023-08-06T13:19:09;1.00;;;0.50;;
677;SDS011;321;48.814;9.132;2023-08-06T13:24:06;0.73;;;0.30;;
677;SDS011;321;48.814;9.132;2023-08-06T13:26:32;1.77;;;0.83;;
677;SDS011;321;48.814;9.132;2023-08-06T13:28:58;0.77;;;0.37;;
677;SDS011;321;48.814;9.132;2023-08-06T13:31:24;0.80;;;0.50;;
677;SDS011;321;48.814;9.132;2023-08-06T13:33:50;0.70;;;0.40;;
677;SDS011;321;48.814;9.132;2023-08-06T13:36:16;0.70;;;0.30;;
677;SDS011;321;48.814;9.132;2023-08-06T13:38:42;0.83;;;0.50;;
677;SDS011;321;48.814;9.132;2023-08-06T13:41:08;0.80;;;0.40;;
677;SDS011;321;48.814;9.132;2023-08-06T13:43:34;0.80;;;0.40;;
677;SDS011;321;48.814;9.132;2023-08-06T13:46:00;0.70;;;0.30;;
677;SDS011;321;48.814;9.132;2023-08-06T13:48:26;0.70;;;0.40;;
677;SDS011;321;48.814;9.132;2023-08-06T13:50:52;1.10;;;0.70;;
677;SDS011;321;48.814;9.132;2023-08-06T13:53:18;0.70;;;0.30;;
677;SDS011;321;48.814;9.132;2023-08-06T13:55:44;0.80;;;0.50;;
677;SDS011;321;48.814;9.132;2023-08-06T13:58:10;0.70;;;0.30;;
677;SDS011;321;48.814;9.132;2023-08-06T14:00:36;0.80;;;0.40;;
677;SDS011;321;48.814;9.132;2023-08-06T14:03:01;1.57;;;0.53;;
677;SDS011;321;48.814;9.132;2023-08-06T14:05:27;0.80;;;0.50;;
677;SDS011;321;48.814;9.132;2023-08-06T14:07:53;0.97;;;0.53;;
677;SDS011;321;48.814;9.132;2023-08-06T14:10:21;0.70;;;0.40;;
677;SDS011;321;48.814;9.132;2023-08-06T14:12:47;0.80;;;0.40;;
677;SDS011;321;48.814;9.132;2023-08-06T14:15:13;0.80;;;0.53;;
677;SDS011;321;48.814;9.132;2023-08-06T14:17:39;0.90;;;0.50;;
677;SDS011;321;48.814;9.132;2023-08-06T14:20:05;0.70;;;0.40;;
677;SDS011;321;48.814;9.132;2023-08-06T14:22:33;1.10;;;0.47;;
677;SDS011;321;48.814;9.132;2023-08-06T14:24:59;0.70;;;0.30;;
677;SDS011;321;48.814;9.132;2023-08-06T14:27:25;0.80;;;0.40;;
677;SDS011;321;48.814;9.132;2023-08-06T14:29:50;0.80;;;0.50;;
677;SDS011;321;48.814;9.132;2023-08-06T14:32:16;0.80;;;0.40;;
677;SDS011;321;48.814;9.132;2023-08-06T14:34:43;0.83;;;0.50;;
677;SDS011;321;48.814;9.132;2023-08-06T14:37:09;0.97;;;0.50;;
677;SDS011;321;48.814;9.132;2023-08-06T14:39:36;0.70;;;0.30;;
677;SDS011;321;48.814;9.132;2023-08-06T14:42:02;0.70;;;0.30;;
677;SDS011;321;48.814;9.132;2023-08-06T14:44:29;0.80;;;0.60;;
677;SDS011;321;48.814;9.132;2023-08-06T14:46:55;0.70;;;0.30;;
677;SDS011;321;48.814;9.132;2023-08-06T14:49:21;0.77;;;0.33;;
677;SDS011;321;48.814;9.132;2023-08-06T14:51:46;0.77;;;0.43;;
677;SDS011;321;48.814;9.132;2023-08-06T14:54:12;0.90;;;0.60;;
677;SDS011;321;48.814;9.132;2023-08-06T14:56:38;0.70;;;0.37;;
677;SDS011;321;48.814;9.132;2023-08-06T14:59:04;0.70;;;0.30;;
677;SDS011;321;48.814;9.132;2023-08-06T15:01:30;0.80;;;0.50;;
677;SDS011;321;48.814;9.132;2023-08-06T15:03:55;1.50;;;0.97;;
677;SDS011;321;48.814;9.132;2023-08-06T15:06:21;0.90;;;0.50;;
677;SDS011;321;48.814;9.132;2023-08-06T15:08:47;0.80;;;0.40;;
677;SDS011;321;48.814;9.132;2023-08-06T15:11:13;0.87;;;0.50;;
677;SDS011;321;48.814;9.132;2023-08-06T15:13:40;0.80;;;0.40;;
677;SDS011;321;48.814;9.132;2023-08-06T15:16:06;0.97;;;0.70;;
677;SDS011;321;48.814;9.132;2023-08-06T15:18:31;0.70;;;0.30;;
677;SDS011;321;48.814;9.132;2023-08-06T15:20:57;0.80;;;0.40;;
677;SDS011;321;48.814;9.132;2023-08-06T15:23:23;0.90;;;0.60;;
677;SDS011;321;48.814;9.132;2023-08-06T15:25:49;1.50;;;0.50;;
677;SDS011;321;48.814;9.132;2023-08-06T15:28:15;0.80;;;0.47;;
677;SDS011;321;48.814;9.132;2023-08-06T15:30:45;0.70;;;0.40;;
677;SDS011;321;48.814;9.132;2023-08-06T15:33:14;0.80;;;0.47;;
677;SDS011;321;48.814;9.132;2023-08-06T15:35:40;0.80;;;0.57;;
677;SDS011;321;48.814;9.132;2023-08-06T15:38:06;0.73;;;0.37;;
677;SDS011;321;48.814;9.132;2023-08-06T15:40:32;1.43;;;0.50;;
677;SDS011;321;48.814;9.132;2023-08-06T15:42:57;0.80;;;0.40;;
677;SDS011;321;48.814;9.132;2023-08-06T15:45:23;0.97;;;0.67;;
677;SDS011;321;48.814;9.132;2023-08-06T15:47:49;0.70;;;0.30;;
677;SDS011;321;48.814;9.132;2023-08-06T15:50:14;0.93;;;0.60;;
677;SDS011;321;48.814;9.132;2023-08-06T15:52:40;0.80;;;0.50;;
677;SDS011;321;48.814;9.132;2023-08-06T15:55:06;0.87;;;0.57;;
677;SDS011;321;48.814;9.132;2023-08-06T15:57:33;0.80;;;0.40;;